Maersk Bulan — 9V7693 — position and weather

sailwx.info

Track history (hours):
 
Tides and Currents Weather Stations Pressure Air Temp Water Temp Dewpoint Dewpoint Depression Visibility Wind Speed Wind Dir Waves Ship Positions

Maersk Bulan

Last reported at 2016-May-19 04:18 UTC. Time now 2016-May-30 18:28 UTC.
Position N 35°39' W 007°34'.
Warning: this ship's position is 11 days out of date.

Length 223 m; draft 9.3 m.

Type: Ship (hazmat cat A). MMSI: 563455000.

Date/timePositionNaut miles runAvg speedWind from/ knotsBaromVisibWave heightAir tempDewpointWater temp
2016-May-19 04:18N 35°39' W 007°34'912.5
2016-May-19 03:33N 35°42' W 007°23'9712.1
2016-May-18 19:33N 35°59' W 005°26'9 8.8
2016-May-18 18:33N 36°02' W 005°15'8 7.6
2016-May-18 17:33N 36°06' W 005°24'3 1.0
2016-May-18 14:21N 36°08' W 005°26'0 0.0
2016-May-18 13:27N 36°08' W 005°26'0 0.0
2016-May-18 12:30N 36°08' W 005°26'0 0.0
2016-May-18 11:33N 36°08' W 005°26'0 0.0
2016-May-18 08:27N 36°08' W 005°26'0 0.0
2016-May-18 07:27N 36°08' W 005°26'0 0.0
2016-May-18 06:33N 36°08' W 005°26'0 0.0
2016-May-18 05:33N 36°08' W 005°26'0 0.0
2016-May-18 04:03N 36°08' W 005°26'0 0.0
2016-May-18 03:33N 36°08' W 005°26'0 0.0
2016-May-18 02:33N 36°08' W 005°26'0 0.0
2016-May-18 01:33N 36°08' W 005°26'0 0.0
2016-May-18 00:33N 36°08' W 005°26'0 0.0
2016-May-17 23:30N 36°08' W 005°26'0 0.0
2016-May-17 22:33N 36°08' W 005°26'0 0.0
2016-May-17 21:33N 36°08' W 005°26'0 0.0
2016-May-17 20:24N 36°08' W 005°26'0 0.0
2016-May-17 19:24N 36°08' W 005°26'0 0.0
2016-May-17 09:33N 36°08' W 005°26'0 0.0
2016-May-17 08:30N 36°08' W 005°26'0 0.0
2016-May-17 07:33N 36°08' W 005°26'2 0.5
2016-May-17 04:33N 36°09' W 005°24'1010.4
2016-May-17 03:33N 36°05' W 005°12'22511.8
2016-May-16 08:33N 36°34' W 000°35'1212.4
2016-May-16 07:33N 36°36' W 000°20'1212.0
2016-May-16 06:33N 36°37' W 000°05'1211.9
2016-May-16 05:33N 36°39' E 000°10'1211.8
2016-May-16 04:33N 36°41' E 000°24'1511.4
2016-May-16 03:12N 36°44' E 000°43'1011.7
2016-May-16 02:23N 36°46' E 000°55'911.0
2016-May-16 01:33N 36°47' E 001°06'1111.0
2016-May-16 00:33N 36°49' E 001°20'1511.1
2016-May-15 23:13N 36°50' E 001°38'3111.7
2016-May-15 20:31N 36°56' E 002°17'1511.8
2016-May-15 19:13N 36°58' E 002°36'2411.2
2016-May-15 17:07N 37°01' E 003°05'49511.0
2016-May-13 20:08N 36°42' E 013°23'2211.3
2016-May-13 18:10N 36°36' E 013°50'711.6
2016-May-13 17:34N 36°34' E 013°59'1211.5
2016-May-13 16:34N 36°31' E 014°12'1211.6
2016-May-13 15:34N 36°27' E 014°26'1111.1
2016-May-13 14:33N 36°24' E 014°39'1010.3
2016-May-13 13:34N 36°21' E 014°51'9 9.0
2016-May-13 12:34N 36°19' E 015°02'1110.8
2016-May-13 11:33N 36°20' E 015°16'1110.8
2016-May-13 10:33N 36°20' E 015°29'2210.7
2016-May-13 08:32N 36°22' E 015°56'36811.4
2016-May-12 00:18N 36°39' E 023°34'910.8
2016-May-11 23:28N 36°46' E 023°41'2210.2
2016-May-11 21:20N 37°04' E 023°58'1810.2
2016-May-11 19:32N 37°19' E 024°10'1010.4
2016-May-11 18:33N 37°27' E 024°18'1111.2
2016-May-11 17:32N 37°36' E 024°27'1111.0
2016-May-11 16:33N 37°45' E 024°33'1110.8
2016-May-11 15:33N 37°56' E 024°37'1210.5
2016-May-11 14:23N 38°07' E 024°45'248 5.4
2016-May-09 16:33N 40°41' E 028°55'1211.5
2016-May-09 15:32N 40°43' E 029°10'1010.3
2016-May-09 14:33N 40°45' E 029°23'  
Track history (hours):
 
Tides and Currents Weather Stations Pressure Air Temp Water Temp Dewpoint Dewpoint Depression Visibility Wind Speed Wind Dir Waves Ship Positions

Maersk Bulan

Last reported at 2016-May-19 04:18 UTC. Time now 2016-May-30 18:28 UTC.
Position N 35°39' W 007°34'.
Warning: this ship's position is 11 days out of date.

Length 223 m; draft 9.3 m.

Type: Ship (hazmat cat A). MMSI: 563455000.

Date/timePositionNaut miles runAvg speedWind from/ knotsBaromVisibWave heightAir tempDewpointWater temp
2016-May-19 04:18N 35°39' W 007°34'912.5
2016-May-19 03:33N 35°42' W 007°23'9712.1
2016-May-18 19:33N 35°59' W 005°26'9 8.8
2016-May-18 18:33N 36°02' W 005°15'8 7.6
2016-May-18 17:33N 36°06' W 005°24'3 1.0
2016-May-18 14:21N 36°08' W 005°26'0 0.0
2016-May-18 13:27N 36°08' W 005°26'0 0.0
2016-May-18 12:30N 36°08' W 005°26'0 0.0
2016-May-18 11:33N 36°08' W 005°26'0 0.0
2016-May-18 08:27N 36°08' W 005°26'0 0.0
2016-May-18 07:27N 36°08' W 005°26'0 0.0
2016-May-18 06:33N 36°08' W 005°26'0 0.0
2016-May-18 05:33N 36°08' W 005°26'0 0.0
2016-May-18 04:03N 36°08' W 005°26'0 0.0
2016-May-18 03:33N 36°08' W 005°26'0 0.0
2016-May-18 02:33N 36°08' W 005°26'0 0.0
2016-May-18 01:33N 36°08' W 005°26'0 0.0
2016-May-18 00:33N 36°08' W 005°26'0 0.0
2016-May-17 23:30N 36°08' W 005°26'0 0.0
2016-May-17 22:33N 36°08' W 005°26'0 0.0
2016-May-17 21:33N 36°08' W 005°26'0 0.0
2016-May-17 20:24N 36°08' W 005°26'0 0.0
2016-May-17 19:24N 36°08' W 005°26'0 0.0
2016-May-17 09:33N 36°08' W 005°26'0 0.0
2016-May-17 08:30N 36°08' W 005°26'0 0.0
2016-May-17 07:33N 36°08' W 005°26'2 0.5
2016-May-17 04:33N 36°09' W 005°24'1010.4
2016-May-17 03:33N 36°05' W 005°12'22511.8
2016-May-16 08:33N 36°34' W 000°35'1212.4
2016-May-16 07:33N 36°36' W 000°20'1212.0
2016-May-16 06:33N 36°37' W 000°05'1211.9
2016-May-16 05:33N 36°39' E 000°10'1211.8
2016-May-16 04:33N 36°41' E 000°24'1511.4
2016-May-16 03:12N 36°44' E 000°43'1011.7
2016-May-16 02:23N 36°46' E 000°55'911.0
2016-May-16 01:33N 36°47' E 001°06'1111.0
2016-May-16 00:33N 36°49' E 001°20'1511.1
2016-May-15 23:13N 36°50' E 001°38'3111.7
2016-May-15 20:31N 36°56' E 002°17'1511.8
2016-May-15 19:13N 36°58' E 002°36'2411.2
2016-May-15 17:07N 37°01' E 003°05'49511.0
2016-May-13 20:08N 36°42' E 013°23'2211.3
2016-May-13 18:10N 36°36' E 013°50'711.6
2016-May-13 17:34N 36°34' E 013°59'1211.5
2016-May-13 16:34N 36°31' E 014°12'1211.6
2016-May-13 15:34N 36°27' E 014°26'1111.1
2016-May-13 14:33N 36°24' E 014°39'1010.3
2016-May-13 13:34N 36°21' E 014°51'9 9.0
2016-May-13 12:34N 36°19' E 015°02'1110.8
2016-May-13 11:33N 36°20' E 015°16'1110.8
2016-May-13 10:33N 36°20' E 015°29'2210.7
2016-May-13 08:32N 36°22' E 015°56'36811.4
2016-May-12 00:18N 36°39' E 023°34'910.8
2016-May-11 23:28N 36°46' E 023°41'2210.2
2016-May-11 21:20N 37°04' E 023°58'1810.2
2016-May-11 19:32N 37°19' E 024°10'1010.4
2016-May-11 18:33N 37°27' E 024°18'1111.2
2016-May-11 17:32N 37°36' E 024°27'1111.0
2016-May-11 16:33N 37°45' E 024°33'1110.8
2016-May-11 15:33N 37°56' E 024°37'1210.5
2016-May-11 14:23N 38°07' E 024°45'248 5.4
2016-May-09 16:33N 40°41' E 028°55'1211.5
2016-May-09 15:32N 40°43' E 029°10'1010.3
2016-May-09 14:33N 40°45' E 029°23'  

Dump ship's entire track history